jeudi 15 mai 2014

ALERTE SPOTTING 15/05/14

*** Grève fonction publique ***

CR2 OE-ISA
   AOJ088A  08h00/23h15


319 G-EZIO easyJet (Unicef)
   U24062/U24023  08h10/08h30
  U24024/U24063  11h40/12h15

CNJ D-CZZZ
  DCS707   08h15/18h30

321 EC-JGS Iberia (nouvelles couleurs)
   IB3436/IB3435  11h05/11h50

340/321?  Iberia
  IB3410/IB3411  19h30/20h15

320 Air Corsica (blanc avec titre)
   XK4517/XK45514  20h20/21h25

Manque les prévisions de certains AB / AH / AZ / BA / BE / IB / KM / TP / TU
*** Heures en Local Time **
Prévisions matinales soumises à modifications de dernières minute.
 Voir le log du mois pour la version 'définitive' de la journée: 
 http://www.airkalo.com/ORLYAVIATION/Logdumois.html

le TAF de la journée:




METAR: LFPO 150230Z 36006KT CAVOK 08/03 Q1033 NOSIG=
TAF LONG: LFPO 142300Z 1500/1606 03006KT CAVOK TEMPO 1510/1516 SCT025=